createdAt,value
2019-03-06T00:00:58.133Z,6.53
2019-03-06T00:03:27.977Z,6.70
2019-03-06T00:05:57.740Z,7.40
2019-03-06T00:08:27.488Z,7.20
2019-03-06T00:10:57.250Z,6.03
2019-03-06T00:13:26.995Z,6.70
2019-03-06T00:15:56.765Z,7.33
2019-03-06T00:18:26.591Z,6.37
2019-03-06T00:20:56.367Z,7.63
2019-03-06T00:23:26.112Z,7.43
2019-03-06T00:25:55.971Z,7.00
2019-03-06T00:28:25.719Z,7.20
2019-03-06T00:30:57.049Z,8.10
2019-03-06T00:33:26.790Z,6.87
2019-03-06T00:35:58.163Z,8.70
2019-03-06T00:38:27.929Z,10.87
2019-03-06T00:41:03.158Z,11.47
2019-03-06T00:43:32.998Z,9.40
2019-03-06T00:46:02.763Z,8.80
2019-03-06T00:48:32.820Z,7.43
2019-03-06T00:51:02.623Z,7.83
2019-03-06T00:53:32.396Z,8.40
2019-03-06T00:56:02.257Z,11.03
2019-03-06T00:58:32.021Z,7.30
2019-03-06T01:01:01.786Z,6.97
2019-03-06T01:03:31.559Z,7.43
2019-03-06T01:06:02.004Z,7.50
2019-03-06T01:08:31.764Z,6.63
2019-03-06T01:11:01.529Z,6.60
2019-03-06T01:13:31.290Z,6.50
2019-03-06T01:16:01.033Z,6.50
2019-03-06T01:18:30.803Z,6.37
2019-03-06T01:21:00.554Z,6.97
2019-03-06T01:23:30.505Z,6.27
2019-03-06T01:26:00.235Z,6.83
2019-03-06T01:28:29.998Z,7.00
2019-03-06T01:30:59.741Z,5.87
2019-03-06T01:33:43.096Z,12.30
2019-03-06T01:36:20.670Z,8.90
2019-03-06T01:38:57.937Z,8.20
2019-03-06T01:41:47.392Z,7.90
2019-03-06T01:44:18.735Z,8.30
2019-03-06T01:46:48.507Z,8.50
2019-03-06T01:49:18.305Z,8.10
2019-03-06T01:51:48.085Z,10.37
2019-03-06T01:54:18.000Z,14.57
2019-03-06T01:56:47.796Z,9.17
2019-03-06T01:59:17.595Z,7.30
2019-03-06T02:01:47.550Z,7.00
2019-03-06T02:04:17.334Z,6.93
2019-03-06T02:06:47.112Z,7.17
2019-03-06T02:09:18.513Z,6.70
2019-03-06T02:11:48.294Z,6.83
2019-03-06T02:14:18.071Z,7.13
2019-03-06T02:16:47.833Z,7.03
2019-03-06T02:19:17.573Z,6.33
2019-03-06T02:21:47.383Z,6.67
2019-03-06T02:24:17.691Z,7.67
2019-03-06T02:26:48.523Z,8.07
2019-03-06T02:29:18.270Z,7.53
2019-03-06T02:31:48.030Z,7.33
2019-03-06T02:34:17.839Z,8.10
2019-03-06T02:36:47.613Z,7.50
2019-03-06T02:39:17.485Z,7.40
2019-03-06T02:41:47.269Z,7.83
2019-03-06T02:44:17.050Z,7.57
2019-03-06T02:46:47.816Z,10.50
2019-03-06T02:49:17.872Z,14.83
2019-03-06T02:51:47.681Z,13.40
2019-03-06T02:54:17.461Z,11.00
2019-03-06T02:56:47.232Z,10.57
2019-03-06T02:59:24.404Z,10.03
2019-03-06T03:02:11.108Z,9.93
2019-03-06T03:04:42.461Z,10.30
2019-03-06T03:07:13.262Z,9.57
2019-03-06T03:09:43.055Z,10.50
2019-03-06T03:12:12.833Z,10.10
2019-03-06T03:14:42.619Z,10.83
2019-03-06T03:17:12.397Z,10.10
2019-03-06T03:19:42.160Z,9.87
2019-03-06T03:22:11.901Z,8.87
2019-03-06T03:24:41.673Z,8.83
2019-03-06T03:27:11.421Z,11.03
2019-03-06T03:29:41.223Z,10.13
2019-03-06T03:32:11.362Z,10.87
2019-03-06T03:34:41.173Z,10.77
2019-03-06T03:37:10.940Z,10.17
2019-03-06T03:39:40.752Z,9.73
2019-03-06T03:42:12.637Z,11.43
2019-03-06T03:44:42.442Z,11.27
2019-03-06T03:47:12.220Z,9.50
2019-03-06T03:49:42.036Z,9.20
2019-03-06T03:52:11.814Z,9.53
2019-03-06T03:54:41.594Z,8.27
2019-03-06T03:57:13.060Z,8.87
2019-03-06T03:59:42.869Z,11.57
2019-03-06T04:02:12.650Z,10.87
2019-03-06T04:04:42.453Z,10.33
2019-03-06T04:07:12.229Z,10.80
2019-03-06T04:09:42.188Z,10.73
2019-03-06T04:12:11.968Z,10.67
2019-03-06T04:14:41.737Z,9.67
2019-03-06T04:17:11.496Z,9.57
2019-03-06T04:19:41.242Z,9.33
2019-03-06T04:22:11.306Z,10.17
2019-03-06T04:24:41.046Z,9.10
2019-03-06T04:27:10.819Z,9.03
2019-03-06T04:29:40.561Z,8.07
2019-03-06T04:32:10.372Z,11.50
2019-03-06T04:34:40.385Z,12.17
2019-03-06T04:37:10.177Z,14.53
2019-03-06T04:39:39.914Z,13.17
2019-03-06T04:42:09.682Z,15.67
2019-03-06T04:44:39.462Z,15.40
2019-03-06T04:47:09.276Z,15.70
2019-03-06T04:49:39.042Z,15.93
2019-03-06T04:52:08.824Z,19.57
2019-03-06T04:54:38.596Z,21.37
2019-03-06T04:57:08.332Z,18.10
2019-03-06T04:59:38.111Z,13.87
2019-03-06T05:02:07.862Z,11.30
2019-03-06T05:04:37.655Z,17.40
2019-03-06T05:07:07.409Z,115.87
2019-03-06T05:09:37.219Z,125.70
2019-03-06T05:12:06.980Z,91.77
2019-03-06T05:14:36.759Z,45.77
2019-03-06T05:17:08.213Z,26.43
2019-03-06T05:19:38.114Z,18.83
2019-03-06T05:22:08.170Z,13.13
2019-03-06T05:24:37.984Z,12.87
2019-03-06T05:27:07.746Z,11.50
2019-03-06T05:29:37.530Z,10.33
2019-03-06T05:32:27.422Z,12.73
2019-03-06T05:34:59.325Z,14.33
2019-03-06T05:37:51.962Z,15.03
2019-03-06T05:40:21.761Z,14.87
2019-03-06T05:42:51.632Z,12.20
2019-03-06T05:45:21.434Z,10.80
2019-03-06T05:47:51.208Z,12.23
2019-03-06T05:50:21.299Z,16.50
2019-03-06T05:52:51.082Z,14.67
2019-03-06T05:55:20.884Z,15.27
2019-03-06T05:57:50.655Z,16.63
2019-03-06T06:00:22.032Z,17.07
2019-03-06T06:02:51.862Z,15.57
2019-03-06T06:05:21.676Z,13.60
2019-03-06T06:07:51.456Z,13.90
2019-03-06T06:10:21.228Z,13.30
2019-03-06T06:12:51.185Z,17.00
2019-03-06T06:15:20.924Z,15.57
2019-03-06T06:17:50.708Z,14.60
2019-03-06T06:20:20.567Z,16.87
2019-03-06T06:22:51.935Z,19.27
2019-03-06T06:25:21.674Z,20.60
2019-03-06T06:27:51.520Z,23.97
2019-03-06T06:30:22.099Z,30.33
2019-03-06T06:32:52.038Z,25.70
2019-03-06T06:35:21.781Z,30.33
2019-03-06T06:37:51.583Z,27.73
2019-03-06T06:40:21.320Z,26.53
2019-03-06T06:42:51.100Z,29.17
2019-03-06T06:45:20.876Z,27.90
2019-03-06T06:48:10.929Z,26.40
2019-03-06T06:50:49.457Z,23.43
2019-03-06T06:53:40.631Z,18.70
2019-03-06T06:56:37.874Z,19.17
2019-03-06T06:59:11.443Z,18.67
2019-03-06T07:01:57.973Z,19.80
2019-03-06T07:04:51.885Z,18.17
2019-03-06T07:07:29.017Z,17.87
2019-03-06T07:10:00.394Z,16.60
2019-03-06T07:12:34.545Z,14.67
2019-03-06T07:15:13.304Z,12.57
2019-03-06T07:17:44.689Z,14.73
2019-03-06T07:20:17.779Z,15.27
2019-03-06T07:22:55.094Z,13.83
2019-03-06T07:25:26.469Z,15.20
2019-03-06T07:27:57.818Z,13.20
2019-03-06T07:30:35.282Z,12.77
2019-03-06T07:33:12.391Z,11.40
2019-03-06T07:36:06.020Z,12.47
2019-03-06T07:38:36.890Z,13.03
2019-03-06T07:41:08.262Z,13.00
2019-03-06T07:43:45.815Z,15.73
2019-03-06T07:46:17.455Z,14.83
2019-03-06T07:49:06.415Z,14.43
2019-03-06T07:51:37.783Z,14.87
2019-03-06T07:54:15.206Z,11.97
2019-03-06T07:56:56.328Z,12.50
2019-03-06T07:59:26.097Z,14.40
2019-03-06T08:01:58.995Z,11.80
2019-03-06T08:04:28.772Z,12.00
2019-03-06T08:07:00.140Z,12.70
2019-03-06T08:09:29.991Z,12.83
2019-03-06T08:12:01.374Z,11.50
2019-03-06T08:14:38.743Z,13.70
2019-03-06T08:17:26.611Z,14.77
2019-03-06T08:19:58.237Z,13.67
2019-03-06T08:22:38.903Z,14.67
2019-03-06T08:25:13.094Z,11.33
2019-03-06T08:27:42.903Z,13.00
2019-03-06T08:30:12.782Z,13.40
2019-03-06T08:32:42.569Z,12.17
2019-03-06T08:35:12.383Z,10.40
2019-03-06T08:37:42.116Z,11.87
2019-03-06T08:40:12.598Z,10.47
2019-03-06T08:42:42.347Z,12.47
2019-03-06T08:45:15.432Z,14.60
2019-03-06T08:47:46.735Z,13.47
2019-03-06T08:50:18.128Z,15.90
2019-03-06T08:52:49.431Z,18.30
2019-03-06T08:55:29.606Z,13.77
2019-03-06T08:58:19.319Z,12.13
2019-03-06T09:01:07.081Z,11.40
2019-03-06T09:03:47.406Z,11.23
2019-03-06T09:06:30.908Z,14.67
2019-03-06T09:09:08.128Z,15.27
2019-03-06T09:11:45.496Z,10.87
2019-03-06T09:14:20.193Z,11.23
2019-03-06T09:17:01.396Z,20.27
2019-03-06T09:19:48.972Z,14.67
2019-03-06T09:22:32.731Z,16.37
2019-03-06T09:25:04.069Z,13.40
2019-03-06T09:27:35.456Z,11.13
2019-03-06T09:30:30.067Z,13.43
2019-03-06T09:33:04.170Z,12.40
2019-03-06T09:35:41.441Z,11.77
2019-03-06T09:38:29.055Z,12.27
2019-03-06T09:41:17.098Z,12.30
2019-03-06T09:43:57.308Z,11.57
2019-03-06T09:46:34.665Z,11.53
2019-03-06T09:49:12.051Z,12.27
2019-03-06T09:51:43.395Z,14.00
2019-03-06T09:54:23.860Z,14.93
2019-03-06T09:56:55.216Z,12.97
2019-03-06T09:59:28.856Z,13.13
2019-03-06T10:02:06.719Z,13.20
2019-03-06T10:04:35.983Z,13.50
2019-03-06T10:07:10.309Z,12.83
2019-03-06T10:09:41.671Z,13.03
2019-03-06T10:12:19.040Z,14.80
2019-03-06T10:14:56.537Z,14.87
2019-03-06T10:17:33.863Z,15.93
2019-03-06T10:20:05.640Z,16.47
2019-03-06T10:22:35.403Z,14.43
2019-03-06T10:25:07.093Z,16.57
2019-03-06T10:27:36.878Z,13.90
2019-03-06T10:30:12.142Z,14.80
2019-03-06T10:32:42.189Z,12.40
2019-03-06T10:35:15.961Z,12.60
2019-03-06T10:37:45.815Z,13.00
2019-03-06T10:40:17.483Z,12.43
2019-03-06T10:42:47.252Z,14.87
2019-03-06T10:45:17.738Z,17.77
2019-03-06T10:47:47.896Z,15.30
2019-03-06T10:50:26.918Z,13.27
2019-03-06T10:52:53.721Z,13.97
2019-03-06T10:55:23.525Z,15.33
2019-03-06T10:57:53.571Z,13.90
2019-03-06T11:00:30.623Z,12.80
2019-03-06T11:03:00.685Z,12.73
2019-03-06T11:05:32.012Z,14.43
2019-03-06T11:08:02.103Z,14.70
2019-03-06T11:10:33.526Z,14.40
2019-03-06T11:13:08.499Z,15.37
2019-03-06T11:15:38.175Z,13.07
2019-03-06T11:18:08.337Z,13.50
2019-03-06T11:20:38.341Z,11.57
2019-03-06T11:23:11.764Z,12.13
2019-03-06T11:25:42.075Z,12.10
2019-03-06T11:28:13.019Z,11.63
2019-03-06T11:30:51.088Z,12.10
2019-03-06T11:33:21.968Z,11.40
2019-03-06T11:35:53.074Z,12.87
2019-03-06T11:38:22.841Z,14.17
2019-03-06T11:40:52.702Z,15.73
2019-03-06T11:43:22.470Z,12.87
2019-03-06T11:45:52.209Z,11.50
2019-03-06T11:48:22.025Z,13.63
2019-03-06T11:50:51.762Z,10.57
2019-03-06T11:53:21.551Z,10.23
2019-03-06T11:55:51.313Z,9.83
2019-03-06T11:58:21.617Z,12.23
2019-03-06T12:00:51.402Z,12.90
2019-03-06T12:03:22.297Z,12.50
2019-03-06T12:05:52.068Z,12.50
2019-03-06T12:08:21.852Z,10.50
2019-03-06T12:10:51.731Z,17.40
2019-03-06T12:13:21.486Z,19.97
2019-03-06T12:15:51.781Z,20.60
2019-03-06T12:18:23.065Z,15.03
2019-03-06T12:20:53.168Z,13.00
2019-03-06T12:23:22.999Z,11.77
2019-03-06T12:25:52.858Z,10.33
2019-03-06T12:28:22.610Z,10.23
2019-03-06T12:30:52.493Z,12.30
2019-03-06T12:33:27.108Z,11.13
2019-03-06T12:35:56.906Z,10.67
2019-03-06T12:38:26.641Z,9.30
2019-03-06T12:40:56.448Z,9.60
2019-03-06T12:43:26.199Z,8.97
2019-03-06T12:46:22.830Z,12.40
2019-03-06T12:48:48.169Z,8.20
2019-03-06T12:51:17.965Z,10.30
2019-03-06T12:53:47.917Z,8.60
2019-03-06T12:56:18.170Z,9.60
2019-03-06T12:58:48.070Z,14.27
2019-03-06T13:01:17.886Z,10.43
2019-03-06T13:03:47.686Z,9.37
2019-03-06T13:06:24.581Z,8.13
2019-03-06T13:08:50.605Z,10.00
2019-03-06T13:11:20.481Z,8.77
2019-03-06T13:13:50.260Z,10.60
2019-03-06T13:16:20.030Z,11.60
2019-03-06T13:18:49.816Z,13.63
2019-03-06T13:21:19.735Z,15.40
2019-03-06T13:23:49.535Z,13.77
2019-03-06T13:26:19.271Z,9.10
2019-03-06T13:28:57.046Z,13.23
2019-03-06T13:31:20.527Z,10.17
2019-03-06T13:33:58.376Z,9.60
2019-03-06T13:36:28.167Z,9.07
2019-03-06T13:39:06.014Z,9.87
2019-03-06T13:41:29.539Z,9.27
2019-03-06T13:43:59.298Z,10.00
2019-03-06T13:46:29.316Z,9.07
2019-03-06T13:48:59.132Z,9.30
2019-03-06T13:51:28.913Z,9.47
2019-03-06T13:53:58.693Z,9.70
2019-03-06T13:56:28.502Z,11.03
2019-03-06T13:58:58.355Z,9.60
2019-03-06T14:01:28.323Z,9.87
2019-03-06T14:03:58.096Z,10.73
2019-03-06T14:06:27.868Z,8.57
2019-03-06T14:08:57.642Z,9.50
2019-03-06T14:11:27.374Z,9.03
2019-03-06T14:13:57.180Z,9.07
2019-03-06T14:16:26.988Z,8.87
2019-03-06T14:18:56.821Z,9.10
2019-03-06T14:21:26.595Z,9.40
2019-03-06T14:23:56.716Z,8.87
2019-03-06T14:26:26.496Z,8.67
2019-03-06T14:28:56.479Z,8.90
2019-03-06T14:31:26.249Z,9.43
2019-03-06T14:33:56.347Z,9.37
2019-03-06T14:36:26.225Z,12.27
2019-03-06T14:38:56.012Z,11.23
2019-03-06T14:41:25.874Z,10.57
2019-03-06T14:43:55.631Z,12.73
2019-03-06T14:46:25.444Z,11.50
2019-03-06T14:48:55.286Z,12.27
2019-03-06T14:51:25.077Z,14.33
2019-03-06T14:53:54.861Z,13.60
2019-03-06T14:56:24.672Z,13.10
2019-03-06T14:58:54.442Z,12.53
2019-03-06T15:01:24.241Z,11.90
2019-03-06T15:03:54.021Z,12.83
2019-03-06T15:06:23.810Z,12.93
2019-03-06T15:08:53.647Z,13.43
2019-03-06T15:11:23.564Z,19.83
2019-03-06T15:13:54.440Z,29.17
2019-03-06T15:16:24.198Z,17.50
2019-03-06T15:18:53.968Z,30.67
2019-03-06T15:21:23.754Z,19.43
2019-03-06T15:23:53.852Z,22.07
2019-03-06T15:26:23.637Z,15.20
2019-03-06T15:28:53.443Z,18.83
2019-03-06T15:31:23.233Z,15.57
2019-03-06T15:33:53.137Z,17.17
2019-03-06T15:36:22.924Z,34.30
2019-03-06T15:38:52.825Z,20.37
2019-03-06T15:41:22.617Z,21.27
2019-03-06T15:43:52.365Z,18.97
2019-03-06T15:46:22.170Z,27.20
2019-03-06T15:48:51.915Z,17.83
2019-03-06T15:51:21.972Z,16.10
2019-03-06T15:53:51.749Z,23.20
2019-03-06T15:56:21.531Z,45.57
2019-03-06T15:58:51.327Z,67.70
2019-03-06T16:01:21.086Z,44.30
2019-03-06T16:03:51.207Z,114.73
2019-03-06T16:06:21.050Z,28.37
2019-03-06T16:08:50.837Z,86.93
2019-03-06T16:11:20.632Z,56.63
2019-03-06T16:13:50.454Z,35.87
2019-03-06T16:16:20.480Z,41.27
2019-03-06T16:18:50.468Z,37.77
2019-03-06T16:21:20.306Z,40.17
2019-03-06T16:23:50.116Z,31.77
2019-03-06T16:26:19.933Z,32.13
2019-03-06T16:28:49.760Z,22.93
2019-03-06T16:31:19.759Z,28.37
2019-03-06T16:33:49.503Z,50.90
2019-03-06T16:36:19.311Z,36.23
2019-03-06T16:38:49.062Z,23.73
2019-03-06T16:41:18.857Z,24.97
2019-03-06T16:43:48.707Z,26.03
2019-03-06T16:46:18.488Z,24.53
2019-03-06T16:48:48.359Z,29.47
2019-03-06T16:51:18.093Z,27.67
2019-03-06T16:53:47.892Z,38.03
2019-03-06T16:56:17.664Z,36.63
2019-03-06T16:58:47.712Z,36.97
2019-03-06T17:01:17.581Z,35.80
2019-03-06T17:03:47.371Z,32.13
2019-03-06T17:06:17.214Z,32.07
2019-03-06T17:08:46.952Z,35.73
2019-03-06T17:11:16.879Z,35.40
2019-03-06T17:13:46.735Z,29.77
2019-03-06T17:16:16.972Z,24.60
2019-03-06T17:18:46.696Z,23.93
2019-03-06T17:21:16.595Z,21.17
2019-03-06T17:23:46.346Z,29.27
2019-03-06T17:26:16.764Z,43.87
2019-03-06T17:28:47.540Z,34.40
2019-03-06T17:31:17.339Z,79.77
2019-03-06T17:33:47.089Z,48.03
2019-03-06T17:36:16.917Z,47.83
2019-03-06T17:38:46.683Z,45.67
2019-03-06T17:41:16.459Z,45.03
2019-03-06T17:43:46.238Z,47.63
2019-03-06T17:46:16.042Z,43.97
2019-03-06T17:48:45.827Z,54.60
2019-03-06T17:51:15.595Z,48.90
2019-03-06T17:53:45.660Z,113.03
2019-03-06T17:56:15.405Z,61.33
2019-03-06T17:58:45.213Z,123.63
2019-03-06T18:01:16.531Z,158.97
2019-03-06T18:03:50.719Z,145.30
2019-03-06T18:06:19.442Z,109.40
2019-03-06T18:08:49.250Z,157.97
2019-03-06T18:11:18.993Z,217.47
2019-03-06T18:13:48.778Z,142.27
2019-03-06T18:16:21.110Z,194.33
2019-03-06T18:18:51.874Z,145.00
2019-03-06T18:21:22.907Z,95.23
2019-03-06T18:23:54.006Z,81.77
2019-03-06T18:26:24.544Z,58.20
2019-03-06T18:28:55.581Z,45.57
2019-03-06T18:31:26.061Z,54.80
2019-03-06T18:33:56.655Z,117.33
2019-03-06T18:36:27.523Z,173.90
2019-03-06T18:38:57.801Z,298.77
2019-03-06T18:41:27.710Z,97.27
2019-03-06T18:43:57.514Z,59.40
2019-03-06T18:46:27.567Z,42.17
2019-03-06T18:48:57.390Z,45.63
2019-03-06T18:51:27.186Z,28.30
2019-03-06T18:53:56.999Z,27.50
2019-03-06T18:56:58.312Z,41.17
2019-03-06T19:00:14.243Z,63.10
2019-03-06T19:03:04.471Z,44.50
2019-03-06T19:05:41.384Z,39.17
2019-03-06T19:08:19.604Z,65.03
2019-03-06T19:10:57.252Z,84.80
2019-03-06T19:13:37.687Z,92.47
2019-03-06T19:16:08.424Z,55.93
2019-03-06T19:18:40.886Z,48.90
2019-03-06T19:21:17.871Z,82.40
2019-03-06T19:23:53.615Z,40.20
2019-03-06T19:26:34.697Z,33.87
2019-03-06T19:29:13.431Z,35.13
2019-03-06T19:38:49.648Z,36.10
2019-03-06T19:41:09.767Z,43.00
2019-03-06T19:43:48.008Z,41.83
2019-03-06T19:46:31.636Z,120.57
2019-03-06T19:49:21.979Z,47.30
2019-03-06T19:51:58.971Z,28.37
2019-03-06T19:54:37.475Z,33.97
2019-03-06T19:57:30.149Z,27.57
2019-03-06T20:00:03.637Z,26.87
2019-03-06T20:02:40.887Z,27.87
2019-03-06T20:05:16.296Z,25.17
2019-03-06T20:07:52.534Z,27.70
2019-03-06T20:10:23.635Z,40.70
2019-03-06T20:12:55.287Z,33.53
2019-03-06T20:15:30.309Z,20.60
2019-03-06T20:18:25.337Z,18.70
2019-03-06T20:20:48.138Z,22.30
2019-03-06T20:23:19.902Z,23.73
2019-03-06T20:25:55.365Z,31.67
2019-03-06T20:28:37.758Z,25.67
2019-03-06T20:31:17.205Z,37.47
2019-03-06T20:33:57.567Z,44.50
2019-03-06T20:36:39.536Z,25.03
2019-03-06T20:39:12.966Z,25.13
2019-03-06T20:41:57.266Z,23.63
2019-03-06T20:44:32.526Z,24.03
2019-03-06T20:47:04.128Z,29.63
2019-03-06T20:49:35.645Z,52.43
2019-03-06T20:52:10.628Z,51.27
2019-03-06T20:54:52.633Z,65.73
2019-03-06T20:57:27.314Z,67.33
2019-03-06T21:00:12.773Z,100.37
2019-03-06T21:02:49.194Z,177.17
2019-03-06T21:05:19.666Z,150.53
2019-03-06T21:08:05.078Z,180.37
2019-03-06T21:10:24.662Z,155.00
2019-03-06T21:12:54.937Z,191.10
2019-03-06T21:15:32.643Z,88.03
2019-03-06T21:18:04.478Z,151.53
2019-03-06T21:20:42.994Z,42.07
2019-03-06T21:23:14.764Z,58.33
2019-03-06T21:25:46.703Z,38.67
2019-03-06T21:31:22.948Z,41.50
2019-03-06T21:33:55.125Z,42.87
2019-03-06T21:36:25.332Z,29.70
2019-03-06T21:39:00.466Z,28.47
2019-03-06T21:41:30.373Z,29.10
2019-03-06T21:44:01.965Z,21.93
2019-03-06T21:46:31.811Z,20.87
2019-03-06T21:49:01.549Z,21.97
2019-03-06T21:51:31.323Z,19.27
2019-03-06T21:54:01.090Z,19.40
2019-03-06T21:56:30.824Z,18.20
2019-03-06T21:59:00.786Z,18.40
2019-03-06T22:01:31.626Z,16.60
2019-03-06T22:04:01.751Z,16.87
2019-03-06T22:06:31.662Z,16.23
2019-03-06T22:09:01.444Z,16.27
2019-03-06T22:11:31.320Z,16.10
2019-03-06T22:14:01.100Z,15.10
2019-03-06T22:16:30.892Z,14.70
2019-03-06T22:19:01.053Z,13.97
2019-03-06T22:21:30.915Z,16.03
2019-03-06T22:24:00.725Z,15.33
2019-03-06T22:26:30.518Z,16.93
2019-03-06T22:29:00.251Z,16.80
2019-03-06T22:31:30.056Z,18.53
2019-03-06T22:33:59.786Z,23.40
2019-03-06T22:36:29.549Z,24.17
2019-03-06T22:38:59.309Z,19.67
2019-03-06T22:41:29.189Z,27.00
2019-03-06T22:43:58.964Z,23.47
2019-03-06T22:46:28.726Z,24.13
2019-03-06T22:48:58.490Z,20.67
2019-03-06T22:51:28.254Z,17.13
2019-03-06T22:53:58.110Z,17.27
2019-03-06T22:56:27.836Z,16.50
2019-03-06T22:58:57.597Z,17.43
2019-03-06T23:01:27.375Z,17.63
2019-03-06T23:03:57.148Z,17.57
2019-03-06T23:06:26.926Z,17.53
2019-03-06T23:08:56.685Z,19.90
2019-03-06T23:11:26.553Z,19.30
2019-03-06T23:13:56.287Z,19.30
2019-03-06T23:16:26.059Z,16.67
2019-03-06T23:18:55.823Z,18.00
2019-03-06T23:21:25.693Z,18.07
2019-03-06T23:23:55.477Z,15.03
2019-03-06T23:26:25.245Z,13.77
2019-03-06T23:28:55.011Z,15.30
2019-03-06T23:31:24.752Z,13.47
2019-03-06T23:33:54.918Z,13.77
2019-03-06T23:36:24.655Z,13.60
2019-03-06T23:38:54.413Z,14.57
2019-03-06T23:41:24.175Z,16.20
2019-03-06T23:43:53.949Z,15.67
2019-03-06T23:46:23.722Z,15.27
2019-03-06T23:48:53.686Z,15.20
2019-03-06T23:51:25.025Z,13.73
2019-03-06T23:53:54.820Z,13.53
2019-03-06T23:56:24.660Z,14.73
2019-03-06T23:58:54.417Z,14.07
